Time;durP1;ratioP1;P1;durP2;ratioP2;P2;SDS_P1;SDS_P2;PMS_P1;PMS_P2;Temp;Humidity;BMP_temperature;BMP_pressure;BME280_temperature;BME280_humidity;BME280_pressure;Samples;Min_cycle;Max_cycle;Signal;HPM_P1;HPM_P2
2024/01/05 00:02:22;;;;;;;33.70;5.43;;;;;;;;;;5027898;28;20451;-85
2024/01/05 00:04:49;;;;;;;42.35;5.78;;;;;;;;;;5029562;28;20045;-85
2024/01/05 00:07:16;;;;;;;78.35;9.60;;;;;;;;;;5012719;28;20044;-85
2024/01/05 00:09:42;;;;;;;92.43;9.57;;;;;;;;;;5041154;28;20103;-84
2024/01/05 00:12:10;;;;;;;61.40;8.30;;;;;;;;;;5042506;28;20408;-85
2024/01/05 00:14:37;;;;;;;56.70;6.70;;;;;;;;;;5044357;28;20049;-87
2024/01/05 00:17:05;;;;;;;20.83;4.70;;;;;;;;;;5042384;28;20041;-87
2024/01/05 00:19:32;;;;;;;31.77;6.15;;;;;;;;;;5040659;28;20085;-85
2024/01/05 00:21:59;;;;;;;52.70;7.15;;;;;;;;;;5032149;28;20041;-85
2024/01/05 00:24:26;;;;;;;40.38;5.47;;;;;;;;;;5032099;28;20376;-85
2024/01/05 00:26:52;;;;;;;18.95;4.97;;;;;;;;;;5031702;28;20468;-85
2024/01/05 00:29:19;;;;;;;46.88;6.88;;;;;;;;;;5030745;28;20496;-85
2024/01/05 00:31:46;;;;;;;24.40;6.13;;;;;;;;;;5014748;28;20084;-85
2024/01/05 00:34:13;;;;;;;41.00;6.72;;;;;;;;;;5030520;28;20492;-86
2024/01/05 00:36:40;;;;;;;59.15;8.18;;;;;;;;;;5029609;28;20480;-85
2024/01/05 00:39:07;;;;;;;38.13;6.60;;;;;;;;;;5025633;28;20033;-86
2024/01/05 00:41:34;;;;;;;20.85;7.15;;;;;;;;;;5031613;28;20473;-86
2024/01/05 00:44:01;;;;;;;74.03;9.98;;;;;;;;;;5012444;28;20519;-86
2024/01/05 00:46:28;;;;;;;26.10;6.60;;;;;;;;;;5020883;28;20060;-85
2024/01/05 00:48:54;;;;;;;19.70;7.78;;;;;;;;;;5032137;28;20045;-85
2024/01/05 00:51:21;;;;;;;61.47;8.48;;;;;;;;;;5012776;28;20118;-86
2024/01/05 00:53:48;;;;;;;23.58;6.85;;;;;;;;;;5026767;28;20091;-87
2024/01/05 00:56:14;;;;;;;30.17;6.85;;;;;;;;;;5029792;28;20445;-89
2024/01/05 00:58:41;;;;;;;132.10;11.32;;;;;;;;;;5019133;28;20041;-87
2024/01/05 01:01:08;;;;;;;23.55;4.60;;;;;;;;;;5015160;28;20064;-86
2024/01/05 01:03:36;;;;;;;13.38;4.65;;;;;;;;;;5022971;28;20044;-86
2024/01/05 01:06:03;;;;;;;54.33;7.55;;;;;;;;;;5008423;28;20052;-88
2024/01/05 01:08:30;;;;;;;93.70;9.88;;;;;;;;;;5022434;28;20156;-87
2024/01/05 01:10:56;;;;;;;117.30;12.40;;;;;;;;;;5004971;28;20045;-86
2024/01/05 01:13:24;;;;;;;36.88;5.05;;;;;;;;;;5025538;28;20048;-85
2024/01/05 01:15:51;;;;;;;61.40;6.78;;;;;;;;;;5026987;28;20365;-86
2024/01/05 01:18:18;;;;;;;15.25;3.05;;;;;;;;;;5029670;28;20034;-86
2024/01/05 01:20:45;;;;;;;115.18;10.02;;;;;;;;;;5027167;28;20473;-86
2024/01/05 01:23:12;;;;;;;34.10;3.63;;;;;;;;;;5026829;28;20045;-85
2024/01/05 01:25:38;;;;;;;52.33;5.53;;;;;;;;;;5018923;28;20041;-86
2024/01/05 01:28:05;;;;;;;83.20;8.48;;;;;;;;;;5018569;28;20050;-87
2024/01/05 01:30:32;;;;;;;145.10;12.45;;;;;;;;;;4999260;28;20030;-85
2024/01/05 01:32:59;;;;;;;80.15;7.40;;;;;;;;;;4991913;28;20084;-89
2024/01/05 01:35:26;;;;;;;67.53;6.78;;;;;;;;;;5018745;28;20041;-87
2024/01/05 01:37:52;;;;;;;104.95;9.35;;;;;;;;;;5023523;28;20035;-86
2024/01/05 01:40:19;;;;;;;61.65;6.35;;;;;;;;;;5019548;28;20602;-89
2024/01/05 01:42:46;;;;;;;47.40;5.25;;;;;;;;;;5014052;28;20492;-88
2024/01/05 01:45:14;;;;;;;53.03;4.63;;;;;;;;;;5016969;28;20033;-86
2024/01/05 01:47:41;;;;;;;89.60;8.10;;;;;;;;;;5014135;28;20033;-89
2024/01/05 01:50:09;;;;;;;61.60;6.10;;;;;;;;;;5019691;28;20038;-86
2024/01/05 01:52:40;;;;;;;158.05;11.63;;;;;;;;;;5010920;28;20041;-86
2024/01/05 01:55:07;;;;;;;169.88;14.40;;;;;;;;;;4999498;28;20052;-86
2024/01/05 01:57:34;;;;;;;127.07;11.10;;;;;;;;;;4993450;28;20038;-87
2024/01/05 02:00:01;;;;;;;187.75;14.82;;;;;;;;;;5014380;28;20048;-86
2024/01/05 02:02:30;;;;;;;400.38;32.15;;;;;;;;;;5091062;22;20914;-89
2024/01/05 02:04:58;;;;;;;325.42;26.02;;;;;;;;;;4917141;28;20868;-87
2024/01/05 02:07:25;;;;;;;408.40;32.53;;;;;;;;;;4909325;28;20036;-88
2024/01/05 02:09:52;;;;;;;352.98;28.15;;;;;;;;;;4924879;28;20045;-88
2024/01/05 02:12:19;;;;;;;448.23;35.75;;;;;;;;;;4916319;28;20038;-88
2024/01/05 02:14:45;;;;;;;515.33;42.75;;;;;;;;;;4912772;28;20042;-89
2024/01/05 02:17:28;;;;;;;478.02;38.05;;;;;;;;;;4910419;28;20041;-89
2024/01/05 02:19:56;;;;;;;370.30;29.58;;;;;;;;;;4930389;28;20095;-89
2024/01/05 02:22:26;;;;;;;502.67;41.90;;;;;;;;;;4914777;28;20031;-89
2024/01/05 02:24:53;;;;;;;608.50;52.63;;;;;;;;;;4894377;28;20036;-89
2024/01/05 02:27:20;;;;;;;640.53;55.38;;;;;;;;;;4894861;28;20035;-89
2024/01/05 02:29:46;;;;;;;467.35;38.50;;;;;;;;;;4901690;28;20034;-89
2024/01/05 02:32:14;;;;;;;478.95;38.85;;;;;;;;;;4909117;28;20548;-88
2024/01/05 02:34:41;;;;;;;514.40;41.65;;;;;;;;;;4896857;28;20039;-88
2024/01/05 02:37:07;;;;;;;521.33;42.03;;;;;;;;;;4907512;28;20939;-92
2024/01/05 02:39:34;;;;;;;555.78;46.63;;;;;;;;;;4903910;28;21057;-91
2024/01/05 02:42:01;;;;;;;519.72;42.45;;;;;;;;;;4912299;28;20046;-92
2024/01/05 02:44:28;;;;;;;534.63;45.35;;;;;;;;;;4909021;28;20054;-92
2024/01/05 02:46:55;;;;;;;377.77;29.85;;;;;;;;;;4921959;28;20885;-91
2024/01/05 02:49:21;;;;;;;449.48;35.28;;;;;;;;;;4895830;28;20051;-90
2024/01/05 02:51:48;;;;;;;473.30;38.20;;;;;;;;;;4888535;28;20035;-92
2024/01/05 02:54:15;;;;;;;296.42;23.75;;;;;;;;;;4926434;28;20047;-91
2024/01/05 02:56:41;;;;;;;306.75;23.98;;;;;;;;;;4918601;28;20039;-91
2024/01/05 02:59:08;;;;;;;330.83;25.90;;;;;;;;;;4926577;28;20934;-92
2024/01/05 03:01:36;;;;;;;277.02;22.23;;;;;;;;;;4921245;28;20066;-91
2024/01/05 03:04:03;;;;;;;544.55;44.67;;;;;;;;;;4913623;28;20043;-92
2024/01/05 03:06:30;;;;;;;352.73;27.70;;;;;;;;;;4919978;28;21161;-90
2024/01/05 03:08:57;;;;;;;529.13;43.72;;;;;;;;;;4925625;28;20842;-91
2024/01/05 03:11:23;;;;;;;447.95;35.42;;;;;;;;;;4921586;28;20145;-92
2024/01/05 03:13:50;;;;;;;412.95;33.13;;;;;;;;;;4918874;28;20887;-92
2024/01/05 03:16:16;;;;;;;537.10;44.63;;;;;;;;;;4915649;28;20046;-92
2024/01/05 03:18:43;;;;;;;601.10;51.03;;;;;;;;;;4909974;28;20035;-91
2024/01/05 03:21:10;;;;;;;528.20;43.83;;;;;;;;;;4907844;28;20568;-91
2024/01/05 03:23:37;;;;;;;531.80;43.53;;;;;;;;;;4908319;28;20049;-91
2024/01/05 03:26:07;;;;;;;625.05;53.20;;;;;;;;;;4901700;28;20047;-91
2024/01/05 03:28:34;;;;;;;556.70;46.10;;;;;;;;;;4906930;28;20142;-93
2024/01/05 03:31:01;;;;;;;608.83;52.00;;;;;;;;;;4910432;28;20053;-92
2024/01/05 03:33:27;;;;;;;609.78;51.33;;;;;;;;;;4898349;28;20695;-90
2024/01/05 03:35:54;;;;;;;620.75;52.92;;;;;;;;;;4905259;28;20058;-91
2024/01/05 03:38:21;;;;;;;412.80;32.65;;;;;;;;;;4910106;28;20031;-91
2024/01/05 03:40:47;;;;;;;620.38;51.67;;;;;;;;;;4908797;28;20137;-91
2024/01/05 03:43:14;;;;;;;534.35;43.22;;;;;;;;;;4905812;28;20572;-92
2024/01/05 03:45:41;;;;;;;590.67;49.63;;;;;;;;;;4914794;28;20134;-91
2024/01/05 03:48:07;;;;;;;567.60;47.33;;;;;;;;;;4904730;28;20061;-92
2024/01/05 03:50:34;;;;;;;353.83;27.67;;;;;;;;;;4915236;28;20035;-90
2024/01/05 03:53:01;;;;;;;495.50;39.67;;;;;;;;;;4920101;28;20047;-92
2024/01/05 03:55:28;;;;;;;448.20;35.63;;;;;;;;;;4923545;28;20031;-93
2024/01/05 03:57:54;;;;;;;335.65;26.40;;;;;;;;;;4913727;28;20821;-91
2024/01/05 04:00:21;;;;;;;536.83;43.85;;;;;;;;;;4915336;28;20537;-92
2024/01/05 04:02:48;;;;;;;594.60;50.08;;;;;;;;;;4905595;28;20047;-92
2024/01/05 04:05:15;;;;;;;488.80;39.25;;;;;;;;;;4910493;28;20178;-92
2024/01/05 04:07:41;;;;;;;424.35;33.15;;;;;;;;;;4919112;28;20961;-91
2024/01/05 04:10:08;;;;;;;451.02;35.25;;;;;;;;;;4917478;28;20054;-92
2024/01/05 04:12:35;;;;;;;372.23;28.85;;;;;;;;;;4922059;28;21168;-92
2024/01/05 04:15:02;;;;;;;476.27;38.00;;;;;;;;;;4915583;28;20039;-91
2024/01/05 04:17:29;;;;;;;445.30;35.30;;;;;;;;;;4913409;28;20833;-91
2024/01/05 04:19:55;;;;;;;567.47;47.65;;;;;;;;;;4908085;28;20039;-91
2024/01/05 04:22:22;;;;;;;564.08;46.50;;;;;;;;;;4906586;28;20557;-91
2024/01/05 04:24:48;;;;;;;590.42;49.35;;;;;;;;;;4906228;28;20568;-92
2024/01/05 04:27:15;;;;;;;595.10;50.50;;;;;;;;;;4904026;28;20101;-91
2024/01/05 04:29:42;;;;;;;631.97;53.70;;;;;;;;;;4898702;28;20039;-92
2024/01/05 04:32:09;;;;;;;590.95;48.90;;;;;;;;;;4897940;28;20105;-91
2024/01/05 04:34:36;;;;;;;615.33;51.72;;;;;;;;;;4899768;28;20864;-91
2024/01/05 04:37:03;;;;;;;633.20;53.88;;;;;;;;;;4895524;28;20042;-92
2024/01/05 04:39:30;;;;;;;730.42;64.18;;;;;;;;;;4895797;28;21102;-91
2024/01/05 04:41:59;;;;;;;759.15;66.93;;;;;;;;;;4882335;28;20050;-91
2024/01/05 04:44:37;;;;;;;749.50;66.13;;;;;;;;;;4880443;28;20051;-91
2024/01/05 04:47:15;;;;;;;711.88;62.72;;;;;;;;;;4880013;28;21460;-91
2024/01/05 04:49:50;;;;;;;686.90;59.65;;;;;;;;;;4863136;28;20094;-90
2024/01/05 04:52:38;;;;;;;693.67;60.17;;;;;;;;;;4895656;28;20054;-91
2024/01/05 04:55:29;;;;;;;737.15;63.50;;;;;;;;;;4884107;28;20876;-91
2024/01/05 04:58:26;;;;;;;;;;;;;;;;;;;;;
2024/01/05 05:01:41;;;;;;;714.17;62.97;;;;;;;;;;4773234;29;20060;-91
2024/01/05 05:04:18;;;;;;;670.50;58.88;;;;;;;;;;4809699;29;20104;-92
2024/01/05 05:07:08;;;;;;;;;;;;;;;;;;;;;
2024/01/05 05:09:43;;;;;;;686.65;59.92;;;;;;;;;;4872118;28;20042;-92
2024/01/05 05:12:10;;;;;;;782.83;68.85;;;;;;;;;;4865858;28;20042;-91
2024/01/05 05:14:41;;;;;;;750.70;65.63;;;;;;;;;;4881305;28;20584;-91
2024/01/05 05:20:56;;;;;;;717.63;61.92;;;;;;;;;;4878071;28;20322;-91
2024/01/05 05:23:37;;;;;;;627.25;53.03;;;;;;;;;;4887107;28;20862;-90
2024/01/05 05:26:05;;;;;;;677.92;58.47;;;;;;;;;;4893720;28;20045;-91
2024/01/05 05:28:32;;;;;;;701.67;61.25;;;;;;;;;;4885956;28;20027;-91
2024/01/05 05:30:59;;;;;;;557.80;45.58;;;;;;;;;;4894432;28;20993;-91
2024/01/05 05:33:25;;;;;;;683.95;59.30;;;;;;;;;;4892106;28;20043;-91
2024/01/05 05:35:52;;;;;;;604.70;50.33;;;;;;;;;;4894127;28;20039;-92
2024/01/05 05:38:19;;;;;;;634.78;54.35;;;;;;;;;;4897627;28;20043;-91
2024/01/05 05:40:55;;;;;;;647.58;55.85;;;;;;;;;;4895581;28;20423;-91
2024/01/05 05:43:22;;;;;;;749.63;66.93;;;;;;;;;;4881964;28;20050;-92
2024/01/05 05:45:50;;;;;;;536.90;44.60;;;;;;;;;;4886248;28;20059;-88
2024/01/05 05:48:17;;;;;;;688.47;59.70;;;;;;;;;;4901603;28;20043;-90
2024/01/05 05:50:43;;;;;;;449.73;37.63;;;;;;;;;;4906363;28;20076;-92
2024/01/05 05:53:10;;;;;;;519.17;43.67;;;;;;;;;;4946076;28;20043;-86
2024/01/05 05:55:37;;;;;;;264.35;21.40;;;;;;;;;;4947767;28;20036;-89
2024/01/05 05:58:03;;;;;;;559.05;47.60;;;;;;;;;;4942689;28;20079;-92
2024/01/05 06:00:31;;;;;;;414.85;32.80;;;;;;;;;;4930086;28;20348;-92
2024/01/05 06:02:58;;;;;;;48.75;5.18;;;;;;;;;;4925353;28;20474;-88
2024/01/05 06:05:25;;;;;;;37.75;4.03;;;;;;;;;;4971082;28;20042;-89
2024/01/05 06:07:53;;;;;;;20.63;2.70;;;;;;;;;;4970417;28;20073;-89
2024/01/05 06:10:19;;;;;;;24.55;2.83;;;;;;;;;;4972744;28;20121;-89
2024/01/05 06:12:46;;;;;;;74.70;6.60;;;;;;;;;;4961265;28;20039;-91
2024/01/05 06:15:13;;;;;;;230.65;18.08;;;;;;;;;;4956707;28;20043;-89
2024/01/05 06:17:39;;;;;;;162.60;14.00;;;;;;;;;;4956375;28;20725;-91
2024/01/05 06:20:08;;;;;;;234.35;18.80;;;;;;;;;;4966053;28;20130;-89
2024/01/05 06:22:34;;;;;;;254.07;20.38;;;;;;;;;;4942947;28;20038;-88
2024/01/05 06:25:01;;;;;;;239.25;18.90;;;;;;;;;;4950050;28;20076;-91
2024/01/05 06:27:28;;;;;;;287.13;21.60;;;;;;;;;;4946851;28;20634;-90
2024/01/05 06:30:04;;;;;;;291.27;23.00;;;;;;;;;;4936125;28;20051;-87
2024/01/05 06:32:31;;;;;;;168.98;13.82;;;;;;;;;;4938003;28;20468;-92
2024/01/05 06:34:58;;;;;;;154.50;12.48;;;;;;;;;;4950791;28;20042;-91
2024/01/05 06:37:24;;;;;;;73.88;6.25;;;;;;;;;;4961639;28;20066;-90
2024/01/05 06:39:51;;;;;;;50.22;5.32;;;;;;;;;;4967029;28;20050;-90
2024/01/05 06:42:17;;;;;;;65.15;5.80;;;;;;;;;;4961509;28;20643;-91
2024/01/05 06:44:44;;;;;;;95.70;7.70;;;;;;;;;;4966427;28;20043;-90
2024/01/05 06:47:11;;;;;;;81.00;7.18;;;;;;;;;;4965109;28;20070;-90
2024/01/05 06:49:37;;;;;;;79.07;6.68;;;;;;;;;;4968325;28;20038;-90
2024/01/05 06:52:04;;;;;;;68.25;5.78;;;;;;;;;;4968954;28;20505;-90
2024/01/05 06:54:31;;;;;;;47.22;4.38;;;;;;;;;;4967083;28;20048;-90
2024/01/05 06:56:58;;;;;;;59.40;5.18;;;;;;;;;;4969717;28;20525;-89
2024/01/05 06:59:26;;;;;;;77.85;7.18;;;;;;;;;;4966972;28;20039;-90
2024/01/05 07:01:52;;;;;;;82.90;6.93;;;;;;;;;;4966825;28;20097;-90
2024/01/05 07:04:19;;;;;;;39.42;4.25;;;;;;;;;;4965567;28;20101;-90
2024/01/05 07:06:45;;;;;;;131.25;10.55;;;;;;;;;;4964900;28;20045;-90
2024/01/05 07:09:13;;;;;;;195.27;15.93;;;;;;;;;;4951307;28;20035;-91
2024/01/05 07:11:40;;;;;;;51.78;5.15;;;;;;;;;;4964742;28;20042;-90
2024/01/05 07:14:07;;;;;;;50.33;5.38;;;;;;;;;;4967444;28;20553;-90
2024/01/05 07:16:34;;;;;;;68.45;6.03;;;;;;;;;;4963305;28;20053;-90
2024/01/05 07:19:01;;;;;;;62.10;6.65;;;;;;;;;;4964013;28;20077;-90
2024/01/05 07:21:28;;;;;;;139.70;11.55;;;;;;;;;;4954433;28;20050;-92
2024/01/05 07:23:54;;;;;;;207.70;16.40;;;;;;;;;;4946542;28;20607;-91
2024/01/05 07:26:24;;;;;;;296.20;22.92;;;;;;;;;;4944836;28;20049;-91
2024/01/05 07:28:51;;;;;;;237.73;19.63;;;;;;;;;;4937830;28;20946;-92
2024/01/05 07:31:21;;;;;;;186.80;15.20;;;;;;;;;;4944811;28;20043;-91
2024/01/05 07:33:48;;;;;;;156.32;13.70;;;;;;;;;;4951015;28;20067;-90
2024/01/05 07:36:14;;;;;;;151.88;13.27;;;;;;;;;;4950699;28;20103;-90
2024/01/05 07:38:41;;;;;;;165.25;13.75;;;;;;;;;;4950424;28;20042;-90
2024/01/05 07:41:14;;;;;;;82.30;7.53;;;;;;;;;;4952911;28;20035;-90
2024/01/05 07:43:41;;;;;;;58.65;5.55;;;;;;;;;;4962958;28;20765;-90
2024/01/05 07:46:08;;;;;;;76.03;7.03;;;;;;;;;;4962099;28;20046;-90
2024/01/05 07:48:34;;;;;;;61.17;5.90;;;;;;;;;;4967171;28;20046;-91
2024/01/05 07:51:04;;;;;;;65.35;6.85;;;;;;;;;;4967998;28;20049;-91
2024/01/05 07:53:31;;;;;;;74.85;7.20;;;;;;;;;;4968724;28;20054;-89
2024/01/05 07:56:02;;;;;;;92.38;8.50;;;;;;;;;;4967521;28;20074;-91
2024/01/05 07:58:29;;;;;;;115.10;12.23;;;;;;;;;;4960179;28;20034;-90
2024/01/05 08:00:55;;;;;;;73.65;8.63;;;;;;;;;;4967549;28;20458;-90
2024/01/05 08:03:22;;;;;;;77.40;7.90;;;;;;;;;;4968991;28;20039;-90
2024/01/05 08:05:49;;;;;;;36.70;4.70;;;;;;;;;;4966850;28;20039;-89
2024/01/05 08:08:16;;;;;;;33.25;5.18;;;;;;;;;;4970834;28;20755;-90
2024/01/05 08:10:42;;;;;;;82.85;7.80;;;;;;;;;;4964731;28;20495;-90
2024/01/05 08:13:09;;;;;;;79.43;7.88;;;;;;;;;;4966293;28;20109;-90
2024/01/05 08:15:35;;;;;;;59.72;6.55;;;;;;;;;;4966465;28;20035;-89
2024/01/05 08:18:03;;;;;;;81.20;8.75;;;;;;;;;;4965964;28;20481;-90
2024/01/05 08:20:30;;;;;;;74.25;8.10;;;;;;;;;;4962059;28;20047;-91
2024/01/05 08:23:00;;;;;;;154.93;15.40;;;;;;;;;;4950400;28;20046;-90
2024/01/05 08:25:27;;;;;;;102.13;10.73;;;;;;;;;;4967886;28;20046;-91
2024/01/05 08:27:53;;;;;;;81.07;9.95;;;;;;;;;;4962592;28;20046;-90
2024/01/05 08:30:21;;;;;;;25.50;4.85;;;;;;;;;;4970686;28;20053;-89
2024/01/05 08:32:51;;;;;;;50.67;6.60;;;;;;;;;;4971457;28;20027;-90
2024/01/05 08:35:18;;;;;;;65.00;7.50;;;;;;;;;;4971195;28;20049;-89
2024/01/05 08:37:45;;;;;;;21.33;4.47;;;;;;;;;;4970051;28;20153;-89
2024/01/05 08:40:12;;;;;;;62.92;7.53;;;;;;;;;;4969327;28;20134;-90
2024/01/05 08:42:39;;;;;;;113.25;10.63;;;;;;;;;;4967640;28;20038;-91
2024/01/05 08:45:06;;;;;;;63.95;8.15;;;;;;;;;;4968223;28;20386;-89
2024/01/05 08:47:33;;;;;;;79.13;8.85;;;;;;;;;;4967017;28;20031;-90
2024/01/05 08:50:00;;;;;;;107.57;10.57;;;;;;;;;;4963872;28;20050;-92
2024/01/05 08:52:27;;;;;;;26.60;4.88;;;;;;;;;;4965381;28;20034;-90
2024/01/05 08:54:53;;;;;;;35.15;4.90;;;;;;;;;;4970834;28;20470;-90
2024/01/05 08:57:20;;;;;;;47.70;5.97;;;;;;;;;;4971596;28;20110;-89
2024/01/05 08:59:46;;;;;;;34.80;5.20;;;;;;;;;;4969720;28;20426;-89
2024/01/05 09:02:13;;;;;;;30.77;5.40;;;;;;;;;;4972199;28;20537;-90
2024/01/05 09:04:40;;;;;;;90.47;8.88;;;;;;;;;;4971308;28;20031;-90
2024/01/05 09:07:07;;;;;;;41.10;6.50;;;;;;;;;;4971434;28;20060;-90
2024/01/05 09:09:33;;;;;;;53.95;5.72;;;;;;;;;;4972307;28;20037;-90
2024/01/05 09:12:01;;;;;;;87.63;8.23;;;;;;;;;;4971025;28;20045;-91
2024/01/05 09:14:28;;;;;;;44.00;5.20;;;;;;;;;;4972038;28;20113;-90
2024/01/05 09:16:54;;;;;;;49.58;5.47;;;;;;;;;;4970939;28;20434;-89
2024/01/05 09:19:21;;;;;;;34.95;5.47;;;;;;;;;;4969565;28;20035;-90
2024/01/05 09:21:51;;;;;;;28.63;5.68;;;;;;;;;;4967530;28;20121;-90
2024/01/05 09:24:18;;;;;;;31.98;5.72;;;;;;;;;;4972408;28;20039;-89
2024/01/05 09:26:46;;;;;;;85.57;8.25;;;;;;;;;;4970203;28;20030;-90
2024/01/05 09:29:13;;;;;;;39.60;5.28;;;;;;;;;;4972129;28;20031;-90
2024/01/05 09:31:44;;;;;;;21.85;4.43;;;;;;;;;;4971047;28;20039;-89
2024/01/05 09:34:11;;;;;;;45.75;4.93;;;;;;;;;;4954554;28;20047;-90
2024/01/05 09:36:43;;;;;;;43.42;5.70;;;;;;;;;;4972490;28;20037;-89
2024/01/05 09:39:13;;;;;;;41.10;4.83;;;;;;;;;;4971036;28;20043;-90
2024/01/05 09:41:43;;;;;;;25.83;3.90;;;;;;;;;;4969901;28;20049;-90
2024/01/05 09:44:10;;;;;;;47.05;5.97;;;;;;;;;;4967283;28;20051;-90
2024/01/05 09:46:41;;;;;;;72.80;7.95;;;;;;;;;;4969405;28;20350;-90
2024/01/05 09:49:08;;;;;;;24.52;5.05;;;;;;;;;;4971866;28;20027;-89
2024/01/05 09:51:36;;;;;;;61.55;6.15;;;;;;;;;;4970359;28;20043;-90
2024/01/05 09:54:03;;;;;;;67.68;8.43;;;;;;;;;;4971329;28;20047;-90
2024/01/05 09:56:30;;;;;;;32.00;4.65;;;;;;;;;;4971423;28;20478;-90
2024/01/05 09:58:57;;;;;;;24.52;4.30;;;;;;;;;;4941663;28;20147;-89
2024/01/05 10:01:24;;;;;;;64.28;6.90;;;;;;;;;;4971053;28;20081;-90
2024/01/05 10:03:54;;;;;;;21.33;3.97;;;;;;;;;;4971830;28;20038;-89
2024/01/05 10:06:21;;;;;;;14.18;3.90;;;;;;;;;;4971011;28;20042;-89
2024/01/05 10:08:55;;;;;;;33.15;5.25;;;;;;;;;;4969485;28;20098;-89
2024/01/05 10:11:31;;;;;;;43.22;5.75;;;;;;;;;;4967821;28;20378;-89
2024/01/05 10:14:06;;;;;;;63.38;7.15;;;;;;;;;;4977907;28;20043;-91
2024/01/05 10:16:37;;;;;;;45.60;6.18;;;;;;;;;;4970410;28;20497;-89
2024/01/05 10:19:11;;;;;;;43.47;6.45;;;;;;;;;;4968615;28;20117;-89
2024/01/05 10:21:41;;;;;;;18.25;3.15;;;;;;;;;;4971465;28;20047;-90
2024/01/05 10:24:22;;;;;;;47.85;4.80;;;;;;;;;;4971842;28;20093;-89
2024/01/05 10:27:00;;;;;;;36.63;4.32;;;;;;;;;;4971695;28;20130;-90
2024/01/05 10:29:26;;;;;;;42.55;4.35;;;;;;;;;;4968544;28;20482;-90
2024/01/05 10:32:18;;;;;;;49.88;4.97;;;;;;;;;;4970487;28;20050;-88
2024/01/05 10:34:46;;;;;;;68.80;6.65;;;;;;;;;;4970518;28;20031;-88
2024/01/05 10:37:14;;;;;;;72.47;6.35;;;;;;;;;;4971766;28;20129;-87
2024/01/05 10:39:47;;;;;;;39.58;5.53;;;;;;;;;;4984954;28;20023;-87
2024/01/05 10:42:14;;;;;;;39.35;4.90;;;;;;;;;;4997027;28;21011;-88
2024/01/05 10:44:42;;;;;;;48.17;5.13;;;;;;;;;;4985345;28;20482;-88
2024/01/05 10:47:09;;;;;;;41.75;5.40;;;;;;;;;;4968821;28;20035;-88
2024/01/05 10:49:35;;;;;;;61.00;5.70;;;;;;;;;;4970740;28;20031;-87
2024/01/05 10:52:02;;;;;;;46.22;4.97;;;;;;;;;;4954692;28;20035;-88
2024/01/05 10:54:30;;;;;;;19.05;3.13;;;;;;;;;;4972068;28;20038;-89
2024/01/05 10:56:57;;;;;;;12.85;2.58;;;;;;;;;;4971944;28;20055;-88
2024/01/05 10:59:24;;;;;;;61.28;5.57;;;;;;;;;;4970551;28;20043;-87
2024/01/05 11:01:51;;;;;;;32.03;4.45;;;;;;;;;;4971566;28;20051;-88
2024/01/05 11:04:21;;;;;;;16.92;2.88;;;;;;;;;;4970354;28;20121;-88
2024/01/05 11:06:47;;;;;;;80.85;6.75;;;;;;;;;;4970857;28;20043;-88
2024/01/05 11:09:28;;;;;;;36.38;4.82;;;;;;;;;;4971442;28;20038;-89
2024/01/05 11:12:01;;;;;;;23.98;3.28;;;;;;;;;;4970675;28;20513;-88
2024/01/05 11:14:35;;;;;;;20.77;3.70;;;;;;;;;;4971358;28;20425;-89
2024/01/05 11:17:25;;;;;;;20.88;3.63;;;;;;;;;;4969746;28;20327;-88
2024/01/05 11:19:56;;;;;;;28.95;3.38;;;;;;;;;;4971090;28;20505;-88
2024/01/05 11:22:31;;;;;;;23.58;3.25;;;;;;;;;;4973971;28;20039;-88
2024/01/05 11:24:58;;;;;;;24.08;3.65;;;;;;;;;;4972424;28;20125;-88
2024/01/05 11:27:29;;;;;;;48.40;4.60;;;;;;;;;;4971412;28;20565;-88
2024/01/05 11:29:57;;;;;;;77.25;22.08;;;;;;;;;;4971585;28;20121;-88
2024/01/05 11:32:33;;;;;;;32.00;10.85;;;;;;;;;;4975243;28;20121;-88
2024/01/05 11:35:01;;;;;;;31.73;5.13;;;;;;;;;;4971723;28;20057;-88
2024/01/05 11:37:29;;;;;;;56.67;5.90;;;;;;;;;;4975019;28;20035;-87
2024/01/05 11:39:56;;;;;;;317.48;25.50;;;;;;;;;;4934247;28;20564;-85
2024/01/05 11:42:27;;;;;;;550.30;43.75;;;;;;;;;;4909864;28;21004;-88
2024/01/05 11:44:54;;;;;;;320.15;24.85;;;;;;;;;;4924906;28;20121;-89
2024/01/05 11:47:40;;;;;;;459.52;35.67;;;;;;;;;;4916792;28;20211;-88
2024/01/05 11:50:26;;;;;;;465.83;35.42;;;;;;;;;;4921371;28;20053;-87
2024/01/05 11:53:12;;;;;;;197.18;15.05;;;;;;;;;;4932489;28;20051;-87
2024/01/05 11:55:46;;;;;;;205.63;15.93;;;;;;;;;;4934210;28;20620;-86
2024/01/05 11:58:18;;;;;;;338.98;25.30;;;;;;;;;;4942210;28;20039;-88
2024/01/05 12:00:46;;;;;;;301.93;22.60;;;;;;;;;;4933896;28;20533;-88
2024/01/05 12:03:14;;;;;;;483.58;37.20;;;;;;;;;;4925280;28;20970;-86
2024/01/05 12:05:41;;;;;;;399.27;29.95;;;;;;;;;;4923920;28;20542;-88
2024/01/05 12:08:09;;;;;;;155.57;11.60;;;;;;;;;;4944895;28;20155;-88
2024/01/05 12:10:37;;;;;;;356.00;30.30;;;;;;;;;;4950499;28;20137;-89
2024/01/05 12:13:04;;;;;;;509.65;40.35;;;;;;;;;;4920581;28;20047;-88
2024/01/05 12:15:30;;;;;;;491.20;38.45;;;;;;;;;;4920326;28;20039;-87
2024/01/05 12:18:05;;;;;;;295.95;22.15;;;;;;;;;;4918216;28;20038;-86
2024/01/05 12:20:45;;;;;;;573.20;46.28;;;;;;;;;;4913557;28;20047;-88
2024/01/05 12:23:12;;;;;;;434.80;34.70;;;;;;;;;;4921796;28;20972;-88
2024/01/05 12:25:41;;;;;;;509.92;41.70;;;;;;;;;;4932562;28;20039;-89
2024/01/05 12:28:12;;;;;;;581.22;47.40;;;;;;;;;;4919097;28;20049;-88
2024/01/05 12:30:39;;;;;;;704.53;60.63;;;;;;;;;;4937171;28;20046;-88
2024/01/05 12:33:06;;;;;;;560.83;45.63;;;;;;;;;;4901750;28;20053;-88
2024/01/05 12:35:33;;;;;;;470.20;37.03;;;;;;;;;;4910973;28;20042;-90
2024/01/05 12:38:00;;;;;;;662.67;55.08;;;;;;;;;;4904170;28;20039;-90
2024/01/05 12:40:28;;;;;;;600.75;49.78;;;;;;;;;;4898046;28;20890;-90
2024/01/05 12:42:54;;;;;;;511.70;40.00;;;;;;;;;;4909982;28;20035;-89
2024/01/05 12:45:24;;;;;;;504.35;38.80;;;;;;;;;;4913439;28;21008;-90
2024/01/05 12:47:51;;;;;;;537.28;42.72;;;;;;;;;;4910396;28;20069;-89
2024/01/05 12:50:27;;;;;;;530.08;42.80;;;;;;;;;;4910674;28;20042;-89
2024/01/05 12:52:54;;;;;;;524.40;40.60;;;;;;;;;;4907082;28;20901;-89
2024/01/05 12:55:28;;;;;;;563.78;44.40;;;;;;;;;;4909566;28;20133;-87
2024/01/05 12:57:54;;;;;;;;;;;;;;;;;;4906813;28;20039;-87
2024/01/05 13:00:22;;;;;;;536.30;42.05;;;;;;;;;;4910510;28;19922;-88
2024/01/05 13:02:50;;;;;;;630.72;52.10;;;;;;;;;;4906765;28;20882;-87
2024/01/05 13:05:34;;;;;;;636.88;51.95;;;;;;;;;;4903869;28;20872;-87
2024/01/05 13:08:01;;;;;;;648.20;53.58;;;;;;;;;;4900480;28;20109;-87
2024/01/05 13:10:28;;;;;;;585.78;47.97;;;;;;;;;;4896142;28;20121;-87
2024/01/05 13:12:55;;;;;;;637.47;53.10;;;;;;;;;;4899354;28;20046;-88
2024/01/05 13:15:22;;;;;;;651.15;53.92;;;;;;;;;;4897459;28;20042;-88
2024/01/05 13:17:49;;;;;;;611.15;50.33;;;;;;;;;;4898430;28;20564;-87
2024/01/05 13:20:25;;;;;;;657.10;55.15;;;;;;;;;;4896806;28;20061;-87
2024/01/05 13:22:54;;;;;;;625.50;51.85;;;;;;;;;;4897275;28;20046;-88
2024/01/05 13:25:21;;;;;;;680.10;57.10;;;;;;;;;;4894867;28;20994;-87
2024/01/05 13:27:48;;;;;;;703.13;59.92;;;;;;;;;;4891112;28;20039;-87
2024/01/05 13:30:15;;;;;;;704.50;60.50;;;;;;;;;;4891458;28;20047;-87
2024/01/05 13:32:42;;;;;;;686.75;58.33;;;;;;;;;;4890090;28;20043;-87
2024/01/05 13:35:09;;;;;;;710.80;61.30;;;;;;;;;;4892266;28;20154;-88
2024/01/05 13:37:37;;;;;;;710.03;62.00;;;;;;;;;;4888415;28;20031;-88
2024/01/05 13:40:04;;;;;;;713.58;61.25;;;;;;;;;;4889738;28;20063;-88
2024/01/05 13:42:32;;;;;;;707.80;61.03;;;;;;;;;;4887732;28;20058;-87
2024/01/05 13:45:04;;;;;;;723.97;62.78;;;;;;;;;;4884030;28;21107;-87
2024/01/05 13:47:32;;;;;;;714.25;61.60;;;;;;;;;;4885405;28;20038;-87
2024/01/05 13:49:59;;;;;;;748.67;66.07;;;;;;;;;;4883147;28;20612;-87
2024/01/05 13:52:26;;;;;;;738.78;65.82;;;;;;;;;;4888049;28;20079;-87
2024/01/05 13:54:52;;;;;;;698.00;61.95;;;;;;;;;;4879863;28;20917;-87
2024/01/05 13:57:19;;;;;;;481.52;41.45;;;;;;;;;;4900295;28;20034;-86
2024/01/05 13:59:46;;;;;;;669.25;57.38;;;;;;;;;;4899080;28;20041;-88
2024/01/05 14:02:13;;;;;;;617.63;52.92;;;;;;;;;;4899074;28;20097;-89
2024/01/05 14:04:39;;;;;;;653.13;55.67;;;;;;;;;;4898548;28;20069;-88
2024/01/05 14:07:06;;;;;;;585.45;48.92;;;;;;;;;;4901473;28;20198;-89
2024/01/05 14:09:33;;;;;;;600.17;50.08;;;;;;;;;;4896468;28;20101;-89
2024/01/05 14:11:59;;;;;;;611.88;51.42;;;;;;;;;;4897591;28;20043;-89
2024/01/05 14:14:27;;;;;;;602.83;50.25;;;;;;;;;;4900249;28;20043;-89
2024/01/05 14:16:54;;;;;;;598.75;50.60;;;;;;;;;;4901323;28;20125;-89
2024/01/05 14:19:21;;;;;;;660.15;57.58;;;;;;;;;;4897996;28;20553;-88
2024/01/05 14:21:47;;;;;;;627.88;55.08;;;;;;;;;;4898451;28;20035;-89
2024/01/05 14:24:14;;;;;;;543.13;45.15;;;;;;;;;;4902169;28;20039;-89
2024/01/05 14:26:45;;;;;;;507.42;41.95;;;;;;;;;;4913357;28;20046;-89
2024/01/05 14:29:12;;;;;;;460.55;38.25;;;;;;;;;;4916143;28;20557;-88
2024/01/05 14:31:38;;;;;;;514.08;43.38;;;;;;;;;;4916104;28;20096;-89